Time;durP1;ratioP1;P1;durP2;ratioP2;P2;SDS_P1;SDS_P2;PMS_P1;PMS_P2;Temp;Humidity;BMP_temperature;BMP_pressure;BME280_temperature;BME280_humidity;BME280_pressure;Samples;Min_cycle;Max_cycle;Signal;HPM_P1;HPM_P2
2022/07/22 00:01:39;;;;;;;9.50;7.60;;;21.40;22.20;;;;;;5047737;28;20485;-60
2022/07/22 00:04:06;;;;;;;9.40;7.70;;;21.40;22.40;;;;;;5049059;28;20466;-60
2022/07/22 00:06:33;;;;;;;10.07;7.20;;;21.40;22.10;;;;;;5045378;28;20470;-60
2022/07/22 00:09:01;;;;;;;10.00;8.27;;;21.30;22.40;;;;;;5045456;28;20478;-59
2022/07/22 00:11:28;;;;;;;9.60;7.83;;;21.30;22.60;;;;;;5045188;28;20872;-60
2022/07/22 00:13:54;;;;;;;10.73;8.60;;;21.30;22.70;;;;;;5046300;28;20454;-60
2022/07/22 00:16:21;;;;;;;10.40;8.63;;;21.30;23.00;;;;;;5047097;28;20454;-60
2022/07/22 00:18:48;;;;;;;11.47;9.77;;;21.30;23.20;;;;;;5042625;28;21031;-60
2022/07/22 00:21:14;;;;;;;12.67;10.67;;;21.20;23.40;;;;;;5050954;28;20458;-60
2022/07/22 00:23:41;;;;;;;10.97;9.83;;;21.10;23.80;;;;;;5044737;28;20481;-61
2022/07/22 00:26:10;;;;;;;11.70;10.03;;;21.10;23.70;;;;;;5046454;28;20467;-60
2022/07/22 00:28:37;;;;;;;10.60;8.93;;;21.00;24.30;;;;;;5042399;28;21217;-60
2022/07/22 00:31:04;;;;;;;11.00;9.80;;;20.90;24.50;;;;;;5041072;28;20477;-60
2022/07/22 00:33:30;;;;;;;12.33;10.03;;;20.90;24.60;;;;;;5043937;28;20474;-59
2022/07/22 00:35:57;;;;;;;11.00;9.87;;;20.90;24.50;;;;;;5049281;28;20985;-60
2022/07/22 00:38:24;;;;;;;15.03;10.67;;;20.90;24.60;;;;;;5044086;28;20486;-60
2022/07/22 00:40:51;;;;;;;11.33;9.07;;;20.80;24.90;;;;;;5044987;28;20990;-60
2022/07/22 00:43:19;;;;;;;13.40;10.57;;;20.70;25.50;;;;;;5043197;28;20481;-59
2022/07/22 00:45:45;;;;;;;14.50;10.57;;;20.70;26.60;;;;;;5041112;28;20478;-60
2022/07/22 00:48:12;;;;;;;12.43;11.10;;;20.60;26.60;;;;;;5043014;28;21016;-59
2022/07/22 00:50:39;;;;;;;12.40;10.07;;;20.50;26.20;;;;;;5044367;28;20465;-60
2022/07/22 00:53:06;;;;;;;14.10;9.80;;;20.50;25.90;;;;;;5046302;28;20454;-60
2022/07/22 00:55:34;;;;;;;10.87;8.90;;;20.60;25.50;;;;;;5048642;28;20963;-59
2022/07/22 00:58:01;;;;;;;12.07;10.60;;;20.60;25.60;;;;;;5042746;28;20485;-58
2022/07/22 01:00:30;;;;;;;11.33;9.50;;;20.50;26.00;;;;;;5042939;28;20457;-60
2022/07/22 01:02:56;;;;;;;13.87;10.20;;;20.50;26.40;;;;;;5047035;28;20482;-60
2022/07/22 01:05:23;;;;;;;13.30;10.57;;;20.40;26.20;;;;;;5043109;28;20477;-60
2022/07/22 01:07:50;;;;;;;11.87;10.60;;;20.40;26.40;;;;;;5045019;28;20493;-60
2022/07/22 01:10:17;;;;;;;11.90;10.53;;;20.30;26.60;;;;;;5045667;28;20462;-59
2022/07/22 01:12:43;;;;;;;13.30;10.60;;;20.30;26.20;;;;;;5045855;28;20458;-60
2022/07/22 01:15:11;;;;;;;12.57;9.47;;;20.30;26.30;;;;;;5042515;28;20470;-60
2022/07/22 01:17:39;;;;;;;11.93;9.70;;;20.30;26.10;;;;;;5044758;28;20478;-59
2022/07/22 01:20:08;;;;;;;12.03;9.80;;;20.30;26.40;;;;;;5044604;28;20984;-60
2022/07/22 01:22:35;;;;;;;11.20;9.57;;;20.30;26.30;;;;;;5046030;28;20516;-60
2022/07/22 01:25:02;;;;;;;11.03;9.80;;;20.30;26.10;;;;;;5044509;28;20465;-59
2022/07/22 01:27:29;;;;;;;11.40;9.87;;;20.30;26.20;;;;;;5056934;28;20977;-60
2022/07/22 01:29:56;;;;;;;14.53;10.90;;;20.30;26.10;;;;;;5048197;28;20903;-59
2022/07/22 01:32:22;;;;;;;14.63;9.53;;;20.30;26.10;;;;;;5045135;28;20493;-59
2022/07/22 01:34:50;;;;;;;10.20;9.10;;;20.40;26.20;;;;;;5044902;28;20473;-60
2022/07/22 01:37:18;;;;;;;11.27;9.40;;;20.30;26.50;;;;;;5043992;28;20497;-59
2022/07/22 01:39:44;;;;;;;11.47;8.97;;;20.30;26.60;;;;;;5043338;28;20466;-60
2022/07/22 01:42:11;;;;;;;11.50;9.67;;;20.20;26.40;;;;;;5043082;28;20464;-60
2022/07/22 01:44:38;;;;;;;12.53;10.27;;;20.20;26.40;;;;;;5046187;28;20466;-60
2022/07/22 01:47:05;;;;;;;11.47;10.27;;;20.10;26.80;;;;;;5049229;28;21002;-60
2022/07/22 01:49:33;;;;;;;13.23;10.60;;;20.10;27.10;;;;;;5041687;28;20560;-60
2022/07/22 01:51:59;;;;;;;11.40;9.97;;;20.10;27.20;;;;;;5042648;28;20539;-60
2022/07/22 01:54:28;;;;;;;10.53;9.33;;;20.00;27.40;;;;;;5044214;28;20477;-59
2022/07/22 01:56:54;;;;;;;11.93;10.50;;;20.00;27.60;;;;;;5046103;28;20458;-60
2022/07/22 01:59:21;;;;;;;12.03;10.10;;;20.00;27.10;;;;;;5044403;28;21201;-59
2022/07/22 02:01:48;;;;;;;12.77;10.53;;;20.00;26.70;;;;;;5043436;28;20585;-60
2022/07/22 02:04:14;;;;;;;11.27;10.10;;;20.00;27.00;;;;;;5040579;28;20878;-60
2022/07/22 02:06:41;;;;;;;15.17;10.90;;;20.00;26.90;;;;;;5041700;28;20458;-61
2022/07/22 02:09:08;;;;;;;12.40;10.37;;;20.00;27.20;;;;;;5044918;28;20478;-60
2022/07/22 02:11:36;;;;;;;14.10;10.70;;;19.90;27.50;;;;;;5044530;28;20470;-60
2022/07/22 02:14:03;;;;;;;15.13;10.80;;;19.90;27.70;;;;;;5045081;28;20465;-60
2022/07/22 02:16:30;;;;;;;13.40;11.70;;;19.80;28.20;;;;;;5046918;28;20461;-60
2022/07/22 02:18:56;;;;;;;13.30;11.57;;;19.80;28.60;;;;;;5043873;28;20482;-60
2022/07/22 02:21:23;;;;;;;14.50;12.13;;;19.80;28.80;;;;;;5043169;28;20470;-59
2022/07/22 02:23:50;;;;;;;15.33;12.80;;;19.80;28.80;;;;;;5044159;28;20484;-59
2022/07/22 02:26:17;;;;;;;14.10;12.47;;;19.70;28.70;;;;;;5041202;28;20457;-60
2022/07/22 02:28:45;;;;;;;16.73;12.70;;;19.70;28.90;;;;;;5040738;28;21043;-59
2022/07/22 02:31:12;;;;;;;14.57;12.77;;;19.70;29.30;;;;;;5043228;28;20481;-60
2022/07/22 02:33:39;;;;;;;13.77;12.37;;;19.70;29.80;;;;;;5046381;28;20472;-60
2022/07/22 02:36:06;;;;;;;13.00;11.53;;;19.60;30.10;;;;;;5043574;28;20458;-60
2022/07/22 02:38:33;;;;;;;13.97;12.53;;;19.60;30.70;;;;;;5044759;28;20485;-60
2022/07/22 02:41:00;;;;;;;17.33;13.13;;;19.60;30.20;;;;;;5040927;28;20453;-61
2022/07/22 02:43:26;;;;;;;13.57;11.40;;;19.60;30.30;;;;;;5044264;28;20481;-57
2022/07/22 02:45:54;;;;;;;13.80;12.30;;;19.60;30.10;;;;;;5047351;28;20508;-60
2022/07/22 02:48:21;;;;;;;13.27;11.90;;;19.50;30.30;;;;;;5051012;28;20485;-60
2022/07/22 02:50:48;;;;;;;14.60;12.57;;;19.50;30.40;;;;;;5048933;28;20459;-60
2022/07/22 02:53:16;;;;;;;14.80;12.20;;;19.40;30.80;;;;;;5047597;28;20458;-60
2022/07/22 02:55:42;;;;;;;13.90;12.27;;;19.40;30.50;;;;;;5044015;28;20469;-59
2022/07/22 02:58:10;;;;;;;13.10;11.70;;;19.40;30.60;;;;;;5047182;28;20477;-59
2022/07/22 03:00:38;;;;;;;13.20;11.47;;;19.40;30.50;;;;;;5046688;28;20458;-60
2022/07/22 03:03:06;;;;;;;14.07;12.27;;;19.40;31.40;;;;;;5053658;28;20482;-60
2022/07/22 03:05:33;;;;;;;14.40;12.93;;;19.40;30.80;;;;;;5048609;28;20461;-60
2022/07/22 03:08:00;;;;;;;13.10;11.70;;;19.30;31.20;;;;;;5048575;28;20474;-60
2022/07/22 03:10:27;;;;;;;17.00;13.17;;;19.30;31.80;;;;;;5044566;28;20471;-59
2022/07/22 03:12:53;;;;;;;14.77;12.17;;;19.20;32.20;;;;;;5047842;28;20488;-60
2022/07/22 03:15:20;;;;;;;14.97;12.70;;;19.10;32.20;;;;;;5048582;28;20493;-59
2022/07/22 03:17:47;;;;;;;14.50;11.70;;;19.00;32.40;;;;;;5046494;28;20477;-59
2022/07/22 03:20:15;;;;;;;16.73;12.63;;;19.00;32.70;;;;;;5045606;28;20552;-60
2022/07/22 03:22:42;;;;;;;15.47;13.20;;;18.90;32.90;;;;;;5047792;28;20462;-60
2022/07/22 03:25:09;;;;;;;15.10;12.57;;;18.90;32.80;;;;;;5045425;28;20825;-59
2022/07/22 03:27:36;;;;;;;14.27;12.30;;;18.90;32.70;;;;;;5045712;28;20490;-59
2022/07/22 03:30:03;;;;;;;15.17;12.10;;;18.80;32.60;;;;;;5044707;28;20466;-60
2022/07/22 03:32:30;;;;;;;15.10;12.77;;;18.80;32.70;;;;;;5047388;28;20485;-59
2022/07/22 03:34:56;;;;;;;14.50;12.60;;;18.70;32.70;;;;;;5046837;28;20480;-59
2022/07/22 03:37:24;;;;;;;16.00;11.93;;;18.70;32.80;;;;;;5048076;28;20477;-60
2022/07/22 03:39:51;;;;;;;14.00;12.60;;;18.70;33.00;;;;;;5045733;28;22187;-60
2022/07/22 03:42:18;;;;;;;15.20;12.93;;;18.60;32.90;;;;;;5045491;28;20459;-59
2022/07/22 03:44:46;;;;;;;15.73;13.40;;;18.60;33.20;;;;;;5048096;28;20485;-59
2022/07/22 03:47:13;;;;;;;14.57;12.90;;;18.60;33.30;;;;;;5048356;28;20471;-60
2022/07/22 03:49:40;;;;;;;13.73;12.33;;;18.60;33.40;;;;;;5043152;28;20478;-59
2022/07/22 03:52:06;;;;;;;17.70;12.67;;;18.60;33.90;;;;;;5045636;28;20462;-60
2022/07/22 03:54:35;;;;;;;13.33;11.90;;;18.60;33.60;;;;;;5042880;28;20467;-60
2022/07/22 03:57:01;;;;;;;13.50;12.10;;;18.60;33.50;;;;;;5045649;28;20461;-61
2022/07/22 03:59:28;;;;;;;15.40;11.37;;;18.60;33.40;;;;;;5045498;28;20480;-60
2022/07/22 04:01:55;;;;;;;15.37;11.87;;;18.60;33.50;;;;;;5033414;28;20470;-61
2022/07/22 04:04:21;;;;;;;14.87;12.20;;;18.60;33.30;;;;;;5045950;28;20486;-61
2022/07/22 04:06:51;;;;;;;12.93;11.63;;;18.70;33.60;;;;;;5046502;28;20477;-60
2022/07/22 04:09:17;;;;;;;13.30;11.90;;;18.70;33.50;;;;;;5045680;28;20482;-61
2022/07/22 04:11:46;;;;;;;12.40;10.50;;;18.70;33.30;;;;;;5042549;28;20991;-61
2022/07/22 04:14:12;;;;;;;12.90;11.00;;;18.70;33.50;;;;;;5045406;28;20512;-58
2022/07/22 04:16:39;;;;;;;15.03;11.73;;;18.80;33.50;;;;;;5050486;28;20467;-61
2022/07/22 04:19:06;;;;;;;15.93;11.27;;;18.80;33.40;;;;;;5049583;28;20496;-61
2022/07/22 04:21:33;;;;;;;14.80;12.00;;;18.80;33.40;;;;;;5042787;28;20512;-60
2022/07/22 04:23:59;;;;;;;15.40;11.53;;;18.90;33.00;;;;;;5042763;28;20480;-61
2022/07/22 04:26:26;;;;;;;12.63;11.33;;;18.90;32.90;;;;;;5044154;28;20458;-60
2022/07/22 04:28:54;;;;;;;15.23;12.80;;;19.00;32.80;;;;;;5048242;28;21475;-61
2022/07/22 04:31:22;;;;;;;12.50;11.17;;;19.10;32.90;;;;;;5043084;28;20481;-59
2022/07/22 04:33:49;;;;;;;19.20;12.80;;;19.20;32.80;;;;;;5047427;28;20548;-61
2022/07/22 04:36:15;;;;;;;14.73;11.80;;;19.40;32.50;;;;;;5046445;28;20462;-60
2022/07/22 04:38:42;;;;;;;16.50;12.40;;;19.60;32.10;;;;;;5042145;28;20477;-62
2022/07/22 04:41:09;;;;;;;13.67;11.80;;;19.70;31.70;;;;;;5046296;28;20466;-61
2022/07/22 04:43:36;;;;;;;12.63;11.17;;;20.00;31.30;;;;;;5044320;28;20481;-60
2022/07/22 04:46:05;;;;;;;16.23;11.50;;;20.30;30.70;;;;;;5045462;28;20458;-62
2022/07/22 04:48:32;;;;;;;15.73;11.20;;;20.40;30.10;;;;;;5046081;28;20477;-60
2022/07/22 04:51:00;;;;;;;18.53;13.27;;;20.50;29.90;;;;;;5049635;28;20826;-60
2022/07/22 04:53:27;;;;;;;12.93;11.63;;;20.50;30.10;;;;;;5043810;28;20466;-61
2022/07/22 04:55:54;;;;;;;15.33;12.93;;;20.50;30.20;;;;;;5044899;28;20469;-60
2022/07/22 04:58:21;;;;;;;15.40;10.80;;;20.90;30.10;;;;;;5045050;28;20478;-60
2022/07/22 05:00:48;;;;;;;16.80;11.47;;;21.90;28.60;;;;;;5049635;28;20484;-60
2022/07/22 05:03:16;;;;;;;11.30;9.93;;;23.20;25.20;;;;;;5044758;28;21177;-62
2022/07/22 05:05:43;;;;;;;12.40;11.10;;;24.30;21.40;;;;;;5041933;28;20474;-61
2022/07/22 05:08:09;;;;;;;18.10;11.17;;;25.30;18.50;;;;;;5050516;28;20517;-61
2022/07/22 05:10:36;;;;;;;13.17;11.03;;;26.20;17.10;;;;;;5047192;28;20993;-62
2022/07/22 05:13:03;;;;;;;13.20;10.73;;;27.00;14.90;;;;;;5047550;28;21157;-62
2022/07/22 05:15:30;;;;;;;12.13;9.90;;;27.70;13.40;;;;;;5042811;28;20882;-62
2022/07/22 05:17:56;;;;;;;11.67;10.47;;;28.50;12.40;;;;;;5046978;28;21028;-61
2022/07/22 05:20:25;;;;;;;12.13;9.73;;;29.30;10.80;;;;;;5049418;28;20462;-62
2022/07/22 05:22:51;;;;;;;11.37;8.60;;;30.10;9.40;;;;;;5044401;28;20458;-63
2022/07/22 05:25:18;;;;;;;11.20;10.10;;;30.80;8.10;;;;;;5046391;28;20489;-60
2022/07/22 05:27:51;;;;;;;11.87;9.83;;;31.50;7.00;;;;;;5045474;28;20485;-60
2022/07/22 05:30:18;;;;;;;10.80;9.20;;;32.20;5.80;;;;;;5043254;28;20498;-61
2022/07/22 05:32:45;;;;;;;12.90;9.83;;;32.80;4.90;;;;;;5037833;28;20975;-61
2022/07/22 05:35:11;;;;;;;11.63;10.40;;;33.40;3.80;;;;;;5048730;28;20459;-62
2022/07/22 05:37:39;;;;;;;10.87;9.43;;;34.00;3.30;;;;;;5043457;28;20905;-61
2022/07/22 05:40:08;;;;;;;12.87;9.20;;;34.70;2.50;;;;;;5046435;28;20473;-62
2022/07/22 05:42:35;;;;;;;11.80;10.63;;;35.30;1.30;;;;;;5046523;28;20461;-63
2022/07/22 05:45:02;;;;;;;11.07;9.93;;;35.90;1.00;;;;;;5042509;28;20488;-62
2022/07/22 05:47:28;;;;;;;15.63;10.37;;;36.60;1.00;;;;;;5044716;28;20466;-62
2022/07/22 05:49:55;;;;;;;11.20;9.70;;;37.20;1.00;;;;;;5045561;28;20463;-61
2022/07/22 05:52:22;;;;;;;12.00;10.37;;;37.70;1.00;;;;;;5045143;28;21135;-61
2022/07/22 05:54:50;;;;;;;10.77;9.67;;;38.30;1.00;;;;;;5042122;28;20474;-59
2022/07/22 05:57:17;;;;;;;10.23;9.23;;;38.80;1.00;;;;;;5042337;28;20462;-60
2022/07/22 05:59:44;;;;;;;10.00;8.60;;;39.40;1.00;;;;;;5042948;28;20512;-63
2022/07/22 06:02:10;;;;;;;14.00;9.53;;;39.90;1.00;;;;;;5045005;28;20474;-63
2022/07/22 06:04:37;;;;;;;10.50;9.40;;;40.50;1.00;;;;;;5039085;28;20530;-62
2022/07/22 06:07:06;;;;;;;10.67;9.67;;;41.00;1.00;;;;;;5040097;28;20982;-62
2022/07/22 06:09:33;;;;;;;9.57;8.63;;;41.60;1.00;;;;;;5039939;28;20481;-63
2022/07/22 06:12:01;;;;;;;9.43;8.50;;;42.20;1.00;;;;;;5049759;28;20461;-62
2022/07/22 06:14:27;;;;;;;10.00;9.00;;;42.80;1.00;;;;;;5049774;28;20481;-62
2022/07/22 06:16:54;;;;;;;9.63;8.70;;;43.20;1.00;;;;;;5048804;28;20465;-62
2022/07/22 06:19:21;;;;;;;12.63;9.93;;;43.70;1.00;;;;;;5046122;28;20865;-61
2022/07/22 06:21:48;;;;;;;10.97;9.87;;;44.10;1.00;;;;;;5047231;28;20469;-60
2022/07/22 06:24:14;;;;;;;9.57;8.67;;;44.50;1.00;;;;;;5050472;28;20478;-62
2022/07/22 06:26:41;;;;;;;9.67;8.40;;;45.00;1.00;;;;;;5047283;28;20470;-63
2022/07/22 06:29:09;;;;;;;9.40;8.53;;;45.30;1.00;;;;;;5043979;28;21603;-61
2022/07/22 06:31:36;;;;;;;9.80;8.30;;;45.40;1.00;;;;;;5045442;28;20478;-61
2022/07/22 06:34:05;;;;;;;10.10;9.10;;;45.50;1.00;;;;;;5052508;28;20466;-62
2022/07/22 06:36:32;;;;;;;8.37;7.57;;;45.60;1.00;;;;;;5049684;28;20461;-62
2022/07/22 06:38:58;;;;;;;9.17;8.27;;;46.00;1.00;;;;;;5049592;28;20482;-63
2022/07/22 06:41:25;;;;;;;8.80;8.00;;;46.30;1.00;;;;;;5047695;28;20461;-63
2022/07/22 06:43:52;;;;;;;9.03;7.30;;;46.60;1.00;;;;;;5042638;28;21000;-62
2022/07/22 06:46:20;;;;;;;9.10;7.70;;;46.90;1.00;;;;;;5048747;28;20489;-63
2022/07/22 06:48:47;;;;;;;9.30;7.90;;;47.40;1.00;;;;;;5049414;28;20469;-62
2022/07/22 06:51:14;;;;;;;9.53;8.63;;;48.00;1.00;;;;;;5047261;28;20450;-62
2022/07/22 06:53:41;;;;;;;8.67;7.80;;;48.50;1.00;;;;;;5045985;28;21153;-63
2022/07/22 06:56:08;;;;;;;9.33;7.83;;;49.10;1.00;;;;;;5048113;28;20477;-63
2022/07/22 06:58:35;;;;;;;11.00;8.20;;;49.60;1.00;;;;;;5044796;28;20486;-62
2022/07/22 07:01:02;;;;;;;9.20;8.20;;;50.30;1.00;;;;;;5044922;28;20489;-62
2022/07/22 07:03:30;;;;;;;8.60;7.67;;;50.70;1.00;;;;;;5045263;28;20505;-63
2022/07/22 07:05:57;;;;;;;11.30;7.47;;;50.50;1.00;;;;;;5046360;28;20494;-64
2022/07/22 07:08:24;;;;;;;7.07;5.97;;;50.60;1.00;;;;;;5051797;28;20523;-62
2022/07/22 07:10:51;;;;;;;7.07;6.10;;;50.90;1.00;;;;;;5047749;28;20462;-62
2022/07/22 07:13:18;;;;;;;6.90;6.20;;;51.50;1.00;;;;;;5047502;28;20462;-64
2022/07/22 07:15:44;;;;;;;7.87;6.47;;;51.40;1.00;;;;;;5045488;28;20511;-62
2022/07/22 07:18:11;;;;;;;7.20;6.47;;;51.50;1.00;;;;;;5045432;28;20489;-62
2022/07/22 07:20:40;;;;;;;6.97;6.07;;;51.60;1.00;;;;;;5048929;28;20458;-59
2022/07/22 07:23:06;;;;;;;7.73;6.50;;;51.70;1.00;;;;;;5044233;28;20470;-59
2022/07/22 07:25:33;;;;;;;7.53;6.43;;;51.50;1.00;;;;;;5052157;28;20476;-58
2022/07/22 07:28:00;;;;;;;7.57;6.67;;;51.70;1.00;;;;;;5043087;28;20483;-59
2022/07/22 07:30:27;;;;;;;8.20;7.40;;;52.30;1.00;;;;;;5048543;28;20542;-58
2022/07/22 07:32:54;;;;;;;7.50;6.80;;;52.70;1.00;;;;;;5045669;28;21219;-59
2022/07/22 07:35:21;;;;;;;6.87;6.23;;;52.40;1.00;;;;;;5046768;28;20454;-59
2022/07/22 07:37:49;;;;;;;7.77;5.60;;;52.20;1.00;;;;;;5046044;28;20478;-58
2022/07/22 07:40:16;;;;;;;6.63;5.90;;;52.30;1.00;;;;;;5050368;28;20457;-60
2022/07/22 07:42:42;;;;;;;6.40;5.80;;;52.80;1.00;;;;;;5043066;28;20473;-58
2022/07/22 07:45:09;;;;;;;7.30;6.43;;;53.30;1.00;;;;;;5044393;28;20481;-57
2022/07/22 07:47:37;;;;;;;6.93;5.03;;;53.60;1.00;;;;;;5042052;28;20485;-60
2022/07/22 07:50:04;;;;;;;6.70;5.70;;;53.80;1.00;;;;;;5045303;28;21121;-58
2022/07/22 07:52:31;;;;;;;6.37;5.63;;;54.20;1.00;;;;;;5044313;28;20465;-59
2022/07/22 07:54:59;;;;;;;6.17;5.50;;;54.20;1.00;;;;;;5048532;28;20838;-61
2022/07/22 07:57:26;;;;;;;7.17;6.37;;;53.70;1.00;;;;;;5045095;28;20470;-59
2022/07/22 07:59:52;;;;;;;6.80;5.60;;;53.60;1.00;;;;;;5033291;28;20461;-58
2022/07/22 08:02:19;;;;;;;8.17;5.47;;;53.40;1.00;;;;;;5046137;28;20528;-59
2022/07/22 08:04:46;;;;;;;6.27;5.50;;;53.40;1.00;;;;;;5043475;28;20489;-58
2022/07/22 08:07:13;;;;;;;7.20;5.47;;;53.80;1.00;;;;;;5045891;28;20466;-59
2022/07/22 08:09:40;;;;;;;6.40;5.80;;;53.90;1.00;;;;;;5038145;28;20477;-60
2022/07/22 08:12:08;;;;;;;6.50;5.80;;;53.70;1.00;;;;;;5044282;28;20462;-60
2022/07/22 08:14:35;;;;;;;6.00;5.40;;;53.10;1.00;;;;;;5042423;28;20626;-60
2022/07/22 08:17:02;;;;;;;8.23;5.53;;;53.60;1.00;;;;;;5044289;28;20461;-60
2022/07/22 08:19:29;;;;;;;5.90;5.30;;;53.80;1.00;;;;;;5042073;28;20485;-61
2022/07/22 08:21:55;;;;;;;5.50;4.70;;;54.00;1.00;;;;;;5045165;28;20458;-59
2022/07/22 08:24:22;;;;;;;5.93;5.33;;;54.10;1.00;;;;;;5044006;28;20473;-60
2022/07/22 08:26:49;;;;;;;5.87;4.57;;;53.80;1.00;;;;;;5047322;28;20472;-59
2022/07/22 08:29:17;;;;;;;6.37;5.77;;;53.70;1.00;;;;;;5046845;28;20485;-58
2022/07/22 08:31:44;;;;;;;6.17;5.50;;;54.00;1.00;;;;;;5043607;28;20508;-59
2022/07/22 08:34:11;;;;;;;5.90;5.30;;;54.90;1.00;;;;;;5045286;28;20465;-60
2022/07/22 08:36:38;;;;;;;5.80;5.17;;;55.80;1.00;;;;;;5040967;28;20480;-61
2022/07/22 08:39:05;;;;;;;5.77;5.17;;;56.30;1.00;;;;;;5047811;28;20485;-60
2022/07/22 08:41:36;;;;;;;6.50;5.00;;;56.80;1.00;;;;;;5048288;28;20465;-59
2022/07/22 08:44:04;;;;;;;5.80;4.70;;;57.60;1.00;;;;;;5042592;28;20476;-60
2022/07/22 08:46:33;;;;;;;5.13;4.63;;;58.10;1.00;;;;;;5035187;28;20481;-59
2022/07/22 08:49:01;;;;;;;6.50;5.47;;;58.80;1.00;;;;;;5043924;28;20500;-60
2022/07/22 08:51:28;;;;;;;5.40;4.90;;;59.00;1.00;;;;;;5043873;28;20290;-60
2022/07/22 08:53:55;;;;;;;7.20;5.20;;;58.30;1.00;;;;;;5040502;28;20211;-59
2022/07/22 08:56:23;;;;;;;6.90;5.33;;;57.80;1.00;;;;;;5044217;28;20681;-60
2022/07/22 08:58:49;;;;;;;6.30;5.70;;;57.40;1.00;;;;;;5043207;28;20277;-59
2022/07/22 09:01:18;;;;;;;14.43;6.03;;;56.80;1.00;;;;;;5046897;28;20465;-58
2022/07/22 09:03:49;;;;;;;7.00;5.20;;;56.40;1.00;;;;;;5048221;28;20500;-59
2022/07/22 09:06:16;;;;;;;6.27;5.20;;;56.50;1.00;;;;;;5043367;28;20218;-58
2022/07/22 09:08:56;;;;;;;6.10;5.50;;;56.80;1.00;;;;;;5043315;28;20226;-59
2022/07/22 09:11:25;;;;;;;6.30;5.20;;;57.20;1.00;;;;;;5045622;28;20464;-59
2022/07/22 09:13:52;;;;;;;8.20;5.03;;;57.80;1.00;;;;;;5047567;28;20469;-60
2022/07/22 09:16:41;;;;;;;6.67;5.97;;;58.30;1.00;;;;;;5048408;28;20197;-58
2022/07/22 09:19:10;;;;;;;6.07;5.45;;;58.60;1.00;;;;;;5044603;28;20616;-60
2022/07/22 09:21:39;;;;;;;8.02;6.22;;;58.70;1.00;;;;;;5049295;28;20199;-60
2022/07/22 09:24:06;;;;;;;6.93;5.53;;;58.40;1.00;;;;;;5041494;28;20832;-60
2022/07/22 09:26:34;;;;;;;7.07;5.63;;;58.40;1.00;;;;;;5046374;28;20718;-57
2022/07/22 09:29:02;;;;;;;6.50;5.53;;;58.00;1.00;;;;;;5052028;28;20242;-59
2022/07/22 09:31:31;;;;;;;6.00;5.40;;;57.30;1.00;;;;;;5047320;28;20222;-60
2022/07/22 09:33:58;;;;;;;6.30;5.63;;;57.40;1.00;;;;;;5057671;28;20199;-59
2022/07/22 09:36:26;;;;;;;6.47;5.80;;;57.80;1.00;;;;;;5050036;28;20195;-60
2022/07/22 09:38:54;;;;;;;6.50;5.15;;;58.20;1.00;;;;;;5050431;28;20223;-59
2022/07/22 09:41:21;;;;;;;6.83;5.73;;;58.00;1.00;;;;;;5043319;28;20211;-60
2022/07/22 09:43:50;;;;;;;6.67;5.37;;;57.80;1.00;;;;;;5051960;28;20210;-59
2022/07/22 09:46:17;;;;;;;6.37;4.93;;;57.20;1.00;;;;;;5048748;28;20690;-58
2022/07/22 09:48:43;;;;;;;7.07;6.37;;;56.80;1.00;;;;;;5054664;28;20560;-59
2022/07/22 09:51:10;;;;;;;6.40;5.27;;;55.30;1.00;;;;;;5049867;28;20969;-59
2022/07/22 09:53:38;;;;;;;6.93;6.23;;;53.30;1.00;;;;;;5050306;28;20469;-60
2022/07/22 09:56:07;;;;;;;7.00;5.70;;;51.40;1.00;;;;;;5075171;22;20516;-70
2022/07/22 09:58:34;;;;;;;6.90;6.17;;;49.50;1.00;;;;;;5079932;28;20503;-69
2022/07/22 10:01:05;;;;;;;7.97;6.33;;;47.90;1.00;;;;;;5078165;28;20471;-69
2022/07/22 10:03:34;;;;;;;7.30;6.13;;;46.30;1.00;;;;;;5066489;28;20468;-69
2022/07/22 10:06:02;;;;;;;7.10;6.40;;;44.40;1.00;;;;;;5068516;28;20499;-69
2022/07/22 10:08:32;;;;;;;6.83;6.03;;;43.00;1.00;;;;;;5070189;28;20485;-69
2022/07/22 10:11:03;;;;;;;11.17;7.10;;;41.70;1.00;;;;;;5079096;28;20466;-68
2022/07/22 10:13:30;;;;;;;7.83;7.03;;;40.60;1.00;;;;;;5075876;28;20469;-68
2022/07/22 10:15:59;;;;;;;8.30;6.90;;;39.90;1.00;;;;;;5080758;28;20936;-68
2022/07/22 10:18:28;;;;;;;8.00;6.80;;;39.30;1.00;;;;;;5071201;28;20485;-67
2022/07/22 10:21:03;;;;;;;8.87;6.30;;;38.50;1.00;;;;;;5066426;28;20539;-68
2022/07/22 10:23:30;;;;;;;7.40;6.37;;;37.90;1.00;;;;;;5069852;28;20493;-68
2022/07/22 10:26:01;;;;;;;7.30;6.60;;;37.50;1.00;;;;;;5069688;28;20483;-68
2022/07/22 10:28:29;;;;;;;7.40;6.33;;;36.90;1.00;;;;;;5084415;28;20483;-68
2022/07/22 10:31:19;;;;;;;7.83;7.10;;;36.50;1.00;;;;;;5091042;28;20547;-68
2022/07/22 10:33:49;;;;;;;9.07;6.60;;;36.00;1.00;;;;;;5079417;28;21158;-69
2022/07/22 10:36:29;;;;;;;7.10;6.40;;;35.80;1.00;;;;;;5079761;28;20452;-68
2022/07/22 10:39:05;;;;;;;8.33;6.77;;;35.60;1.00;;;;;;5070184;28;20782;-68
2022/07/22 10:41:35;;;;;;;7.00;5.93;;;35.20;1.00;;;;;;5084914;28;20525;-68
2022/07/22 10:44:02;;;;;;;9.00;6.07;;;34.80;1.00;;;;;;5065985;28;20466;-67
2022/07/22 10:46:50;;;;;;;8.00;6.40;;;34.50;1.00;;;;;;5070423;28;20473;-67
2022/07/22 10:49:19;;;;;;;8.37;6.73;;;34.00;1.00;;;;;;5081660;28;21080;-67
2022/07/22 10:52:09;;;;;;;7.60;6.80;;;33.60;1.00;;;;;;5070813;28;20463;-67
2022/07/22 10:55:09;;;;;;;9.50;7.50;;;33.30;1.00;;;;;;5079362;28;20465;-68
2022/07/22 10:57:38;;;;;;;9.10;7.10;;;33.00;1.00;;;;;;5076749;28;20955;-68
2022/07/22 11:00:06;;;;;;;9.10;8.17;;;32.90;1.00;;;;;;5090541;28;20486;-68
2022/07/22 11:02:34;;;;;;;9.60;7.57;;;32.70;1.00;;;;;;5082922;28;20481;-67
2022/07/22 11:05:01;;;;;;;9.27;7.37;;;32.70;1.10;;;;;;5057294;28;20462;-67
2022/07/22 11:07:30;;;;;;;8.87;6.90;;;32.70;1.60;;;;;;5065849;28;21012;-68
2022/07/22 11:10:09;;;;;;;7.53;6.63;;;32.80;1.20;;;;;;5067899;28;21063;-68
2022/07/22 11:12:38;;;;;;;9.77;6.87;;;32.90;1.00;;;;;;5066491;28;20465;-68
2022/07/22 11:15:07;;;;;;;10.70;6.70;;;32.90;1.00;;;;;;5071076;28;20461;-68
2022/07/22 11:17:35;;;;;;;10.53;7.03;;;32.80;1.00;;;;;;5083150;28;20484;-67
2022/07/22 11:20:03;;;;;;;9.17;6.87;;;32.90;1.00;;;;;;5084170;28;20484;-67
2022/07/22 11:22:30;;;;;;;7.67;6.73;;;32.80;1.00;;;;;;5079139;28;20476;-68
2022/07/22 11:24:58;;;;;;;9.43;7.47;;;32.60;1.00;;;;;;5084155;28;20877;-67
2022/07/22 11:27:25;;;;;;;8.30;7.03;;;32.40;1.00;;;;;;5075275;28;21026;-67
2022/07/22 11:29:56;;;;;;;7.87;6.90;;;32.30;1.00;;;;;;5079549;28;20485;-68
2022/07/22 11:32:24;;;;;;;8.60;6.73;;;32.30;1.00;;;;;;5089048;28;20474;-67
2022/07/22 11:34:50;;;;;;;9.70;6.13;;;32.30;1.00;;;;;;5089027;28;20464;-68
2022/07/22 11:37:19;;;;;;;8.67;6.80;;;32.40;1.00;;;;;;5069111;28;20453;-69
2022/07/22 11:39:47;;;;;;;7.97;7.17;;;32.30;1.00;;;;;;5067741;28;20488;-69
2022/07/22 11:42:14;;;;;;;7.73;6.60;;;32.30;1.00;;;;;;5075904;28;20493;-69
2022/07/22 11:44:41;;;;;;;7.23;6.27;;;32.30;1.00;;;;;;5075573;28;20460;-68
2022/07/22 11:47:11;;;;;;;8.03;6.87;;;32.30;1.00;;;;;;5074358;28;20496;-69
2022/07/22 11:49:39;;;;;;;8.33;6.23;;;32.30;1.00;;;;;;5082041;28;20480;-69
2022/07/22 11:52:11;;;;;;;7.47;6.57;;;32.20;1.00;;;;;;5074984;28;20466;-69
2022/07/22 11:54:39;;;;;;;8.27;6.93;;;32.20;1.30;;;;;;5077382;28;20491;-69
2022/07/22 11:57:07;;;;;;;8.83;6.03;;;32.30;1.10;;;;;;5078093;28;21014;-68
2022/07/22 11:59:35;;;;;;;8.13;6.67;;;32.20;1.00;;;;;;5070581;28;20481;-69
2022/07/22 12:02:03;;;;;;;7.67;5.70;;;32.10;1.00;;;;;;5068717;28;20996;-69
2022/07/22 12:04:33;;;;;;;7.80;7.00;;;31.90;1.00;;;;;;5090352;22;20494;-60
2022/07/22 12:07:02;;;;;;;7.70;6.70;;;31.90;1.00;;;;;;5040474;28;20486;-58
2022/07/22 12:09:31;;;;;;;8.93;6.10;;;31.80;1.00;;;;;;5042272;28;20482;-59
2022/07/22 12:11:59;;;;;;;8.00;6.47;;;31.90;1.00;;;;;;5036922;28;20996;-59
2022/07/22 12:14:27;;;;;;;6.67;5.97;;;31.90;1.50;;;;;;5041444;28;21020;-58
2022/07/22 12:16:56;;;;;;;6.83;6.13;;;31.90;1.00;;;;;;5050962;28;20453;-62
2022/07/22 12:19:24;;;;;;;10.27;6.50;;;31.90;1.00;;;;;;5041665;28;20481;-63
2022/07/22 12:21:55;;;;;;;7.57;6.83;;;31.80;1.00;;;;;;5042272;28;20472;-61
2022/07/22 12:24:34;;;;;;;7.87;6.00;;;31.70;1.00;;;;;;5039268;28;20926;-60
2022/07/22 12:27:02;;;;;;;8.07;6.83;;;31.70;1.00;;;;;;5051802;28;20524;-61
2022/07/22 12:29:31;;;;;;;6.73;6.03;;;31.70;1.00;;;;;;5054723;28;20466;-61
2022/07/22 12:32:00;;;;;;;7.60;6.80;;;31.60;1.00;;;;;;5037841;28;20501;-61
2022/07/22 12:34:33;;;;;;;9.17;6.90;;;31.70;1.00;;;;;;5043559;28;21090;-59
2022/07/22 12:37:12;;;;;;;6.80;6.10;;;31.70;1.00;;;;;;5041711;28;20475;-61
2022/07/22 12:39:39;;;;;;;10.43;6.10;;;31.70;1.00;;;;;;5041437;28;20470;-62
2022/07/22 12:42:17;;;;;;;9.30;7.90;;;31.80;1.00;;;;;;5047011;28;20465;-59
2022/07/22 12:44:52;;;;;;;10.10;7.03;;;31.80;1.00;;;;;;5041978;28;20496;-61
2022/07/22 12:47:38;;;;;;;7.93;5.87;;;31.90;1.00;;;;;;5042325;28;20501;-60